sensor_id;sensor_type;location;lat;lon;timestamp;pressure;altitude;pressure_sealevel;temperature;humidity
54856;BME280;40748;53.168;5.800;2023-03-01T00:02:26;103288.31999999999;;;2.07;64.56
54856;BME280;40748;53.168;5.800;2023-03-01T00:04:56;103285.9;;;2.03;64.81
54856;BME280;40748;53.168;5.800;2023-03-01T00:07:26;103283.8;;;2.01;65.00
54856;BME280;40748;53.168;5.800;2023-03-01T00:09:56;103288.75;;;1.98;64.87
54856;BME280;40748;53.168;5.800;2023-03-01T00:12:26;103290.51999999999;;;1.93;64.68
54856;BME280;40748;53.168;5.800;2023-03-01T00:14:56;103291.41;;;1.89;64.65
54856;BME280;40748;53.168;5.800;2023-03-01T00:17:27;103290.38;;;1.86;64.83
54856;BME280;40748;53.168;5.800;2023-03-01T00:19:56;103287.62;;;1.84;65.14
54856;BME280;40748;53.168;5.800;2023-03-01T00:22:26;103285.25;;;1.82;65.00
54856;BME280;40748;53.168;5.800;2023-03-01T00:24:56;103286.23999999999;;;1.79;64.98
54856;BME280;40748;53.168;5.800;2023-03-01T00:27:26;103283.75000000001;;;1.76;64.87
54856;BME280;40748;53.168;5.800;2023-03-01T00:29:56;103281.03000000001;;;1.74;65.58
54856;BME280;40748;53.168;5.800;2023-03-01T00:32:26;103281.98999999999;;;1.76;65.98
54856;BME280;40748;53.168;5.800;2023-03-01T00:34:56;103283.45;;;1.74;65.68
54856;BME280;40748;53.168;5.800;2023-03-01T00:37:26;103282.98;;;1.71;65.41
54856;BME280;40748;53.168;5.800;2023-03-01T00:39:56;103282.14;;;1.67;65.41
54856;BME280;40748;53.168;5.800;2023-03-01T00:42:26;103274.83;;;1.63;65.87
54856;BME280;40748;53.168;5.800;2023-03-01T00:44:56;103277.43000000001;;;1.62;66.46
54856;BME280;40748;53.168;5.800;2023-03-01T00:47:28;103279.0;;;1.59;66.29
54856;BME280;40748;53.168;5.800;2023-03-01T00:49:56;103277.0;;;1.54;66.37
54856;BME280;40748;53.168;5.800;2023-03-01T00:52:26;103280.08;;;1.50;66.67
54856;BME280;40748;53.168;5.800;2023-03-01T00:54:56;103277.53;;;1.47;66.75
54856;BME280;40748;53.168;5.800;2023-03-01T00:57:26;103274.99;;;1.42;66.89
54856;BME280;40748;53.168;5.800;2023-03-01T00:59:56;103273.65999999999;;;1.39;67.04
54856;BME280;40748;53.168;5.800;2023-03-01T01:02:26;103273.65999999999;;;1.37;67.04
54856;BME280;40748;53.168;5.800;2023-03-01T01:04:56;103278.36;;;1.36;67.16
54856;BME280;40748;53.168;5.800;2023-03-01T01:07:26;103283.78;;;1.33;67.29
54856;BME280;40748;53.168;5.800;2023-03-01T01:09:56;103276.45;;;1.31;67.38
54856;BME280;40748;53.168;5.800;2023-03-01T01:12:26;103279.42;;;1.26;67.60
54856;BME280;40748;53.168;5.800;2023-03-01T01:14:56;103273.88;;;1.27;67.94
54856;BME280;40748;53.168;5.800;2023-03-01T01:17:26;103270.94;;;1.26;67.75
54856;BME280;40748;53.168;5.800;2023-03-01T01:19:56;103265.87;;;1.25;67.73
54856;BME280;40748;53.168;5.800;2023-03-01T01:22:26;103265.36000000002;;;1.23;67.70
54856;BME280;40748;53.168;5.800;2023-03-01T01:24:56;103267.80000000002;;;1.20;67.78
54856;BME280;40748;53.168;5.800;2023-03-01T01:29:56;103267.75;;;1.03;68.06
54856;BME280;40748;53.168;5.800;2023-03-01T01:32:26;103261.66;;;1.08;68.90
54856;BME280;40748;53.168;5.800;2023-03-01T01:34:56;103256.30000000002;;;1.09;68.64
54856;BME280;40748;53.168;5.800;2023-03-01T01:37:26;103252.99;;;1.08;68.54
54856;BME280;40748;53.168;5.800;2023-03-01T01:39:56;103249.1;;;1.06;68.41
54856;BME280;40748;53.168;5.800;2023-03-01T01:42:27;103249.1;;;1.02;68.41
54856;BME280;40748;53.168;5.800;2023-03-01T01:49:56;103239.29000000001;;;1.00;68.88
54856;BME280;40748;53.168;5.800;2023-03-01T01:54:57;103236.72999999998;;;0.98;68.83
54856;BME280;40748;53.168;5.800;2023-03-01T01:57:27;103234.20000000001;;;0.96;68.78
54856;BME280;40748;53.168;5.800;2023-03-01T01:59:57;103230.73;;;0.93;68.92
54856;BME280;40748;53.168;5.800;2023-03-01T02:02:26;103225.01;;;0.90;68.80
54856;BME280;40748;53.168;5.800;2023-03-01T02:04:58;103213.94;;;0.88;69.08
54856;BME280;40748;53.168;5.800;2023-03-01T02:07:26;103213.94;;;0.85;69.08
54856;BME280;40748;53.168;5.800;2023-03-01T02:09:56;103203.99;;;0.83;69.04
54856;BME280;40748;53.168;5.800;2023-03-01T02:12:26;103196.97000000002;;;0.80;68.95
54856;BME280;40748;53.168;5.800;2023-03-01T02:15:00;103196.13999999998;;;0.76;69.07
54856;BME280;40748;53.168;5.800;2023-03-01T02:17:26;103191.64000000001;;;0.74;69.16
54856;BME280;40748;53.168;5.800;2023-03-01T02:20:00;103191.52999999998;;;0.73;69.16
54856;BME280;40748;53.168;5.800;2023-03-01T02:22:27;103190.86;;;0.69;69.14
54856;BME280;40748;53.168;5.800;2023-03-01T02:25:01;103189.49;;;0.67;69.38
54856;BME280;40748;53.168;5.800;2023-03-01T02:29:56;103186.90999999999;;;0.65;69.42
54856;BME280;40748;53.168;5.800;2023-03-01T02:32:26;103184.78;;;0.63;69.35
54856;BME280;40748;53.168;5.800;2023-03-01T02:34:56;103187.87999999999;;;0.60;69.41
54856;BME280;40748;53.168;5.800;2023-03-01T02:37:26;103181.59000000001;;;0.58;69.58
54856;BME280;40748;53.168;5.800;2023-03-01T02:39:58;103181.77;;;0.57;69.56
54856;BME280;40748;53.168;5.800;2023-03-01T02:42:27;103174.45999999999;;;0.55;69.33
54856;BME280;40748;53.168;5.800;2023-03-01T02:44:56;103177.57999999999;;;0.52;69.39
54856;BME280;40748;53.168;5.800;2023-03-01T02:47:26;103180.58000000002;;;0.50;69.42
54856;BME280;40748;53.168;5.800;2023-03-01T02:49:56;103176.14000000001;;;0.47;69.30
54856;BME280;40748;53.168;5.800;2023-03-01T02:52:28;103168.68;;;0.45;69.34
54856;BME280;40748;53.168;5.800;2023-03-01T02:54:57;103166.11;;;0.42;69.45
54856;BME280;40748;53.168;5.800;2023-03-01T02:59:56;103167.06999999999;;;0.41;69.65
54856;BME280;40748;53.168;5.800;2023-03-01T03:02:28;103162.17;;;0.42;69.55
54856;BME280;40748;53.168;5.800;2023-03-01T03:04:56;103161.45;;;0.43;69.55
54856;BME280;40748;53.168;5.800;2023-03-01T03:09:56;103153.92;;;0.45;70.00
54856;BME280;40748;53.168;5.800;2023-03-01T03:12:26;103155.97;;;0.47;69.91
54856;BME280;40748;53.168;5.800;2023-03-01T03:14:56;103159.48000000001;;;0.48;69.88
54856;BME280;40748;53.168;5.800;2023-03-01T03:17:26;103161.95;;;0.49;69.97
54856;BME280;40748;53.168;5.800;2023-03-01T09:34:56;103065.72000000002;;;5.29;70.39
54856;BME280;40748;53.168;5.800;2023-03-01T09:37:26;103069.20999999999;;;5.26;70.45
54856;BME280;40748;53.168;5.800;2023-03-01T09:39:56;103065.01000000001;;;5.24;70.44
54856;BME280;40748;53.168;5.800;2023-03-01T10:29:58;103059.03000000001;;;5.33;70.80
54856;BME280;40748;53.168;5.800;2023-03-01T10:32:26;103050.9;;;5.38;70.86
54856;BME280;40748;53.168;5.800;2023-03-01T10:34:56;103042.81000000001;;;5.43;70.80
54856;BME280;40748;53.168;5.800;2023-03-01T10:54:57;103017.11;;;9.17;79.84
54856;BME280;40748;53.168;5.800;2023-03-01T10:57:28;103009.95;;;10.21;81.53
54856;BME280;40748;53.168;5.800;2023-03-01T11:02:27;103010.85;;;12.08;83.69
54856;BME280;40748;53.168;5.800;2023-03-01T11:04:57;103011.12000000001;;;12.90;82.87
54856;BME280;40748;53.168;5.800;2023-03-01T11:07:26;103011.12000000001;;;13.57;82.87
54856;BME280;40748;53.168;5.800;2023-03-01T11:09:56;103016.39;;;14.29;81.46
54856;BME280;40748;53.168;5.800;2023-03-01T11:12:26;103013.18000000001;;;14.96;81.43
54856;BME280;40748;53.168;5.800;2023-03-01T11:14:56;103011.43;;;15.58;80.14
54856;BME280;40748;53.168;5.800;2023-03-01T11:17:27;103019.38;;;16.16;78.61
54856;BME280;40748;53.168;5.800;2023-03-01T11:20:00;103016.39;;;16.53;78.34
54856;BME280;40748;53.168;5.800;2023-03-01T11:22:26;103014.18000000001;;;16.93;74.94
54856;BME280;40748;53.168;5.800;2023-03-01T11:24:56;103014.18000000001;;;17.35;74.94
54856;BME280;40748;53.168;5.800;2023-03-01T11:27:27;103007.53;;;17.68;74.42
54856;BME280;40748;53.168;5.800;2023-03-01T11:29:57;103013.77;;;18.07;72.82
54856;BME280;40748;53.168;5.800;2023-03-01T11:32:28;103014.31;;;18.50;72.00
54856;BME280;40748;53.168;5.800;2023-03-01T11:34:57;103013.39;;;18.88;71.23
54856;BME280;40748;53.168;5.800;2023-03-01T11:37:29;103012.04000000001;;;19.26;70.03
54856;BME280;40748;53.168;5.800;2023-03-01T11:39:58;103010.53;;;19.62;69.45
54856;BME280;40748;53.168;5.800;2023-03-01T11:42:28;103008.73999999999;;;19.86;68.26
54856;BME280;40748;53.168;5.800;2023-03-01T11:44:58;103007.96;;;20.09;67.00
54856;BME280;40748;53.168;5.800;2023-03-01T11:47:30;102996.92;;;20.17;65.62
54856;BME280;40748;53.168;5.800;2023-03-01T11:50:02;102992.96999999999;;;20.44;64.49
54856;BME280;40748;53.168;5.800;2023-03-01T11:52:29;102986.40000000001;;;20.50;62.59
54856;BME280;40748;53.168;5.800;2023-03-01T11:54:59;102983.47000000002;;;20.73;62.53
54856;BME280;40748;53.168;5.800;2023-03-01T11:57:32;102983.95000000001;;;20.78;61.27
54856;BME280;40748;53.168;5.800;2023-03-01T11:59:59;102979.2;;;20.86;60.23
54856;BME280;40748;53.168;5.800;2023-03-01T12:02:32;102970.72;;;21.03;59.29
54856;BME280;40748;53.168;5.800;2023-03-01T12:05:02;102968.81000000001;;;21.11;58.23
54856;BME280;40748;53.168;5.800;2023-03-01T12:07:27;102964.66;;;21.08;57.70
54856;BME280;40748;53.168;5.800;2023-03-01T12:10:01;102959.78;;;21.25;56.86
54856;BME280;40748;53.168;5.800;2023-03-01T12:12:30;102954.18999999999;;;21.24;55.62
54856;BME280;40748;53.168;5.800;2023-03-01T12:15:00;102949.56;;;21.23;53.82
54856;BME280;40748;53.168;5.800;2023-03-01T12:17:31;102952.09;;;21.11;53.63
54856;BME280;40748;53.168;5.800;2023-03-01T12:22:29;102952.31000000001;;;20.41;51.46
54856;BME280;40748;53.168;5.800;2023-03-01T12:27:32;102949.26000000001;;;20.50;50.79
54856;BME280;40748;53.168;5.800;2023-03-01T12:29:59;102945.52;;;20.63;50.43
54856;BME280;40748;53.168;5.800;2023-03-01T12:32:30;102944.08;;;20.66;49.75
54856;BME280;40748;53.168;5.800;2023-03-01T12:35:03;102935.13;;;20.97;49.21
54856;BME280;40748;53.168;5.800;2023-03-01T12:37:29;102933.25;;;20.54;49.80
54856;BME280;40748;53.168;5.800;2023-03-01T12:40:01;102933.90999999999;;;20.88;50.50
54856;BME280;40748;53.168;5.800;2023-03-01T12:42:28;102930.6;;;21.02;49.62
54856;BME280;40748;53.168;5.800;2023-03-01T12:45:02;102925.99;;;20.57;48.15
54856;BME280;40748;53.168;5.800;2023-03-01T12:47:30;102918.57;;;20.53;46.92
54856;BME280;40748;53.168;5.800;2023-03-01T12:49:57;102921.53000000001;;;20.31;47.13
54856;BME280;40748;53.168;5.800;2023-03-01T12:52:28;102924.90000000001;;;20.21;47.18
54856;BME280;40748;53.168;5.800;2023-03-01T12:54:56;102918.63;;;20.39;46.68
54856;BME280;40748;53.168;5.800;2023-03-01T12:57:27;102917.09000000001;;;20.49;46.74
54856;BME280;40748;53.168;5.800;2023-03-01T13:00:00;102913.11;;;20.50;45.96
54856;BME280;40748;53.168;5.800;2023-03-01T13:05:00;102897.19;;;20.83;46.14
54856;BME280;40748;53.168;5.800;2023-03-01T13:07:28;102897.12;;;21.08;45.80
54856;BME280;40748;53.168;5.800;2023-03-01T13:10:00;102897.29999999999;;;20.68;45.91
54856;BME280;40748;53.168;5.800;2023-03-01T13:14:56;102898.75;;;21.02;44.69
54856;BME280;40748;53.168;5.800;2023-03-01T13:17:32;102892.54000000001;;;21.04;44.19
54856;BME280;40748;53.168;5.800;2023-03-01T13:19:56;102891.14;;;21.19;43.91
54856;BME280;40748;53.168;5.800;2023-03-01T13:22:28;102882.43;;;20.97;43.90
54856;BME280;40748;53.168;5.800;2023-03-01T13:25:01;102876.4;;;21.07;43.96
54856;BME280;40748;53.168;5.800;2023-03-01T13:27:26;102877.93999999999;;;21.05;43.42
54856;BME280;40748;53.168;5.800;2023-03-01T13:29:57;102875.12;;;21.06;41.55
54856;BME280;40748;53.168;5.800;2023-03-01T13:32:27;102870.0;;;20.68;43.69
54856;BME280;40748;53.168;5.800;2023-03-01T14:07:27;102845.46;;;17.78;38.98
54856;BME280;40748;53.168;5.800;2023-03-01T14:09:58;102840.81000000001;;;17.80;40.85
54856;BME280;40748;53.168;5.800;2023-03-01T14:12:30;102843.47;;;17.72;40.88
54856;BME280;40748;53.168;5.800;2023-03-01T14:14:57;102840.39;;;17.02;40.67
54856;BME280;40748;53.168;5.800;2023-03-01T14:17:31;102841.88999999998;;;17.05;40.41
54856;BME280;40748;53.168;5.800;2023-03-01T14:19:57;102838.18000000001;;;16.57;40.39
54856;BME280;40748;53.168;5.800;2023-03-01T14:34:57;102819.03;;;15.07;41.26
54856;BME280;40748;53.168;5.800;2023-03-01T14:37:27;102817.44000000002;;;14.82;41.50
54856;BME280;40748;53.168;5.800;2023-03-01T14:39:57;102811.38;;;14.52;41.57
54856;BME280;40748;53.168;5.800;2023-03-01T15:04:57;102784.41;;;12.10;45.39
54856;BME280;40748;53.168;5.800;2023-03-01T15:07:27;102784.61;;;12.13;45.33
54856;BME280;40748;53.168;5.800;2023-03-01T15:09:56;102784.61;;;11.83;45.33
54856;BME280;40748;53.168;5.800;2023-03-01T15:14:57;102770.83;;;11.62;46.75
54856;BME280;40748;53.168;5.800;2023-03-01T15:24:56;102763.66;;;11.19;46.62
54856;BME280;40748;53.168;5.800;2023-03-01T15:27:26;102763.92000000001;;;11.18;47.38
54856;BME280;40748;53.168;5.800;2023-03-01T15:29:57;102762.06999999999;;;11.13;47.09
54856;BME280;40748;53.168;5.800;2023-03-01T15:32:27;102760.84000000001;;;11.17;47.49
